Time,TemperatureF,DewpointF,PressureIn,WindDirection,WindDirectionDegrees,WindSpeedMPH,WindSpeedGustMPH,Humidity,HourlyPrecipIn,Conditions,Clouds,dailyrainin,SoftwareType,DateUTC
2013-05-17 00:00:00,53.4,27.1,29.66,WNW,284,2.0,4.0,36,0.00,,,0.01,meteohub,2013-05-17 06:00:00,
2013-05-17 00:06:00,53.6,27.3,29.67,WNW,284,1.0,5.0,36,0.00,,,0.00,meteohub,2013-05-17 06:06:00,
2013-05-17 00:12:00,53.4,26.4,29.66,WNW,284,0.0,5.0,35,0.00,,,0.00,meteohub,2013-05-17 06:12:00,
2013-05-17 00:18:00,53.1,26.1,29.67,WNW,284,0.0,3.0,35,0.00,,,0.00,meteohub,2013-05-17 06:18:00,
2013-05-17 00:24:00,53.1,26.8,29.67,WNW,284,1.0,2.0,36,0.00,,,0.00,meteohub,2013-05-17 06:24:00,
2013-05-17 00:30:00,52.9,27.3,29.67,WNW,284,1.0,4.0,37,0.00,,,0.00,meteohub,2013-05-17 06:30:00,
2013-05-17 00:36:00,52.3,26.2,29.67,WNW,284,0.0,4.0,36,0.00,,,0.00,meteohub,2013-05-17 06:36:00,
2013-05-17 00:42:00,52.3,26.8,29.67,WNW,284,1.0,4.0,37,0.00,,,0.00,meteohub,2013-05-17 06:42:00,
2013-05-17 00:48:00,52.3,26.2,29.66,WNW,284,2.0,3.0,36,0.00,,,0.00,meteohub,2013-05-17 06:48:00,
2013-05-17 00:54:00,52.2,26.1,29.66,WNW,284,0.0,2.0,36,0.00,,,0.00,meteohub,2013-05-17 06:54:00,
2013-05-17 01:00:00,52.2,26.1,29.66,WNW,284,2.0,3.0,36,0.00,,,0.00,meteohub,2013-05-17 07:00:00,
2013-05-17 01:06:00,52.0,26.6,29.66,WNW,284,3.0,5.0,37,0.00,,,0.00,meteohub,2013-05-17 07:06:00,
2013-05-17 01:12:00,52.0,26.6,29.66,WNW,284,2.0,5.0,37,0.00,,,0.00,meteohub,2013-05-17 07:12:00,
2013-05-17 01:18:00,52.5,26.2,29.66,WNW,284,4.0,5.0,36,0.00,,,0.00,meteohub,2013-05-17 07:18:00,
2013-05-17 01:24:00,53.1,26.1,29.66,WNW,284,2.0,5.0,35,0.00,,,0.00,meteohub,2013-05-17 07:24:00,
2013-05-17 01:30:00,52.9,28.0,29.66,WNW,284,2.0,5.0,38,0.00,,,0.00,meteohub,2013-05-17 07:30:00,
2013-05-17 01:36:00,51.4,28.6,29.66,WNW,284,1.0,4.0,41,0.00,,,0.00,meteohub,2013-05-17 07:36:00,
2013-05-17 01:42:00,50.5,27.7,29.66,WNW,284,0.0,4.0,41,0.00,,,0.00,meteohub,2013-05-17 07:42:00,
2013-05-17 01:48:00,50.2,28.0,29.66,WNW,284,0.0,3.0,42,0.00,,,0.00,meteohub,2013-05-17 07:48:00,
2013-05-17 01:54:00,49.8,28.2,29.65,WNW,284,1.0,2.0,43,0.00,,,0.00,meteohub,2013-05-17 07:54:00,
2013-05-17 02:00:00,49.5,28.4,29.65,WNW,284,1.0,3.0,44,0.00,,,0.00,meteohub,2013-05-17 08:00:00,
2013-05-17 02:06:00,49.5,27.3,29.65,WNW,284,3.0,3.0,42,0.00,,,0.00,meteohub,2013-05-17 08:06:00,
2013-05-17 02:12:00,49.6,27.0,29.65,WNW,284,3.0,5.0,41,0.00,,,0.00,meteohub,2013-05-17 08:12:00,
2013-05-17 02:18:00,50.0,27.1,29.65,WNW,284,4.0,5.0,41,0.00,,,0.00,meteohub,2013-05-17 08:18:00,
2013-05-17 02:24:00,50.4,27.0,29.65,WNW,284,1.0,5.0,40,0.00,,,0.00,meteohub,2013-05-17 08:24:00,
2013-05-17 02:30:00,50.4,26.4,29.65,WNW,284,1.0,5.0,39,0.00,,,0.00,meteohub,2013-05-17 08:30:00,
2013-05-17 02:37:00,50.4,27.0,29.65,WNW,284,2.0,5.0,40,0.00,,,0.00,meteohub,2013-05-17 08:37:00,
2013-05-17 02:42:00,50.2,26.2,29.65,WNW,284,4.0,5.0,39,0.00,,,0.00,meteohub,2013-05-17 08:42:00,
2013-05-17 02:49:00,50.2,26.8,29.65,WNW,284,1.0,5.0,40,0.00,,,0.00,meteohub,2013-05-17 08:49:00,
2013-05-17 02:55:00,50.2,26.8,29.64,WNW,284,3.0,5.0,40,0.00,,,0.00,meteohub,2013-05-17 08:55:00,
2013-05-17 03:01:00,50.2,26.2,29.65,WNW,284,2.0,5.0,39,0.00,,,0.00,meteohub,2013-05-17 09:01:00,
2013-05-17 03:07:00,50.2,26.2,29.65,WNW,284,0.0,5.0,39,0.00,,,0.00,meteohub,2013-05-17 09:07:00,
2013-05-17 03:13:00,49.8,26.4,29.65,WNW,284,0.0,5.0,40,0.00,,,0.00,meteohub,2013-05-17 09:13:00,
2013-05-17 03:19:00,49.5,26.1,29.65,WNW,284,0.0,4.0,40,0.00,,,0.00,meteohub,2013-05-17 09:19:00,
2013-05-17 03:25:00,49.1,27.0,29.65,WNW,284,1.0,4.0,42,0.00,,,0.00,meteohub,2013-05-17 09:25:00,
2013-05-17 03:31:00,48.4,27.5,29.65,WNW,284,0.0,2.0,44,0.00,,,0.00,meteohub,2013-05-17 09:31:00,
2013-05-17 03:37:00,48.0,27.1,29.65,WNW,284,0.0,2.0,44,0.00,,,0.00,meteohub,2013-05-17 09:37:00,
2013-05-17 03:43:00,48.0,27.1,29.65,WNW,284,0.0,2.0,44,0.00,,,0.00,meteohub,2013-05-17 09:43:00,
2013-05-17 03:49:00,48.0,27.7,29.65,WNW,284,0.0,2.0,45,0.00,,,0.00,meteohub,2013-05-17 09:49:00,
2013-05-17 03:55:00,47.7,27.3,29.65,WNW,284,0.0,2.0,45,0.00,,,0.00,meteohub,2013-05-17 09:55:00,
2013-05-17 04:01:00,47.3,28.0,29.65,WNW,284,0.0,1.0,47,0.00,,,0.00,meteohub,2013-05-17 10:01:00,
2013-05-17 04:07:00,46.9,27.7,29.65,WNW,284,0.0,1.0,47,0.00,,,0.00,meteohub,2013-05-17 10:07:00,
2013-05-17 04:13:00,46.0,27.9,29.65,WNW,284,0.0,2.0,49,0.00,,,0.00,meteohub,2013-05-17 10:13:00,
2013-05-17 04:19:00,45.5,28.4,29.65,WNW,284,3.0,3.0,51,0.00,,,0.00,meteohub,2013-05-17 10:19:00,
2013-05-17 04:25:00,45.3,28.2,29.65,WNW,284,2.0,4.0,51,0.00,,,0.00,meteohub,2013-05-17 10:25:00,
2013-05-17 04:31:00,45.1,28.0,29.65,WNW,284,0.0,4.0,51,0.00,,,0.00,meteohub,2013-05-17 10:31:00,
2013-05-17 04:37:00,45.1,27.7,29.65,WNW,284,2.0,4.0,50,0.00,,,0.00,meteohub,2013-05-17 10:37:00,
2013-05-17 04:43:00,45.1,27.1,29.65,WNW,284,2.0,4.0,49,0.00,,,0.00,meteohub,2013-05-17 10:43:00,
2013-05-17 04:49:00,45.0,25.9,29.65,WNW,284,3.0,4.0,47,0.00,,,0.00,meteohub,2013-05-17 10:49:00,
2013-05-17 04:55:00,45.3,26.2,29.65,WNW,284,3.0,4.0,47,0.00,,,0.00,meteohub,2013-05-17 10:55:00,
2013-05-17 05:01:00,45.7,26.1,29.65,WNW,284,1.0,5.0,46,0.00,,,0.00,meteohub,2013-05-17 11:01:00,
2013-05-17 05:07:00,45.7,26.1,29.65,WNW,284,3.0,5.0,46,0.00,,,0.00,meteohub,2013-05-17 11:07:00,
2013-05-17 05:13:00,45.7,26.1,29.66,WNW,284,0.0,5.0,46,0.00,,,0.00,meteohub,2013-05-17 11:13:00,
2013-05-17 05:19:00,45.3,26.2,29.66,WNW,284,0.0,4.0,47,0.00,,,0.00,meteohub,2013-05-17 11:19:00,
2013-05-17 05:25:00,45.1,26.1,29.66,WNW,284,1.0,3.0,47,0.00,,,0.00,meteohub,2013-05-17 11:25:00,
2013-05-17 05:31:00,44.8,25.3,29.66,WNW,284,2.0,3.0,46,0.00,,,0.00,meteohub,2013-05-17 11:31:00,
2013-05-17 05:37:00,45.0,25.0,29.66,WNW,284,4.0,5.0,45,0.00,,,0.00,meteohub,2013-05-17 11:37:00,
2013-05-17 05:43:00,45.7,25.0,29.67,WNW,284,2.0,6.0,44,0.00,,,0.00,meteohub,2013-05-17 11:43:00,
2013-05-17 05:49:00,45.9,25.2,29.67,WNW,284,1.0,6.0,44,0.00,,,0.00,meteohub,2013-05-17 11:49:00,
2013-05-17 05:55:00,45.7,25.0,29.67,WNW,284,3.0,5.0,44,0.00,,,0.00,meteohub,2013-05-17 11:55:00,
2013-05-17 06:01:00,45.5,24.8,29.68,WNW,284,0.0,3.0,44,0.00,,,0.00,meteohub,2013-05-17 12:01:00,
2013-05-17 06:07:00,45.9,25.2,29.68,WNW,284,0.0,4.0,44,0.00,,,0.00,meteohub,2013-05-17 12:07:00,
2013-05-17 06:13:00,46.4,25.7,29.68,WNW,284,0.0,4.0,44,0.00,,,0.00,meteohub,2013-05-17 12:13:00,
2013-05-17 06:19:00,46.9,25.0,29.68,WNW,284,0.0,4.0,42,0.00,,,0.00,meteohub,2013-05-17 12:19:00,
2013-05-17 06:26:00,47.7,25.2,29.68,WNW,284,3.0,3.0,41,0.00,,,0.00,meteohub,2013-05-17 12:26:00,
2013-05-17 06:32:00,48.7,24.8,29.68,WNW,284,1.0,5.0,39,0.00,,,0.00,meteohub,2013-05-17 12:32:00,
2013-05-17 06:38:00,49.6,25.7,29.68,WNW,284,4.0,5.0,39,0.00,,,0.00,meteohub,2013-05-17 12:38:00,
2013-05-17 06:44:00,49.8,26.4,29.68,WNW,284,0.0,5.0,40,0.00,,,0.00,meteohub,2013-05-17 12:44:00,
2013-05-17 06:50:00,49.8,25.9,29.69,WNW,284,1.0,5.0,39,0.00,,,0.00,meteohub,2013-05-17 12:50:00,
2013-05-17 06:56:00,49.8,27.1,29.69,West,280,1.0,6.0,41,0.00,,,0.00,meteohub,2013-05-17 12:56:00,
2013-05-17 07:02:00,49.6,27.0,29.69,West,280,1.0,6.0,41,0.00,,,0.00,meteohub,2013-05-17 13:02:00,
2013-05-17 07:08:00,49.6,27.5,29.69,West,281,0.0,6.0,42,0.00,,,0.00,meteohub,2013-05-17 13:08:00,
2013-05-17 07:14:00,49.8,27.7,29.69,West,280,2.0,5.0,42,0.00,,,0.00,meteohub,2013-05-17 13:14:00,
2013-05-17 07:20:00,50.2,28.6,29.69,West,281,1.0,3.0,43,0.00,,,0.00,meteohub,2013-05-17 13:20:00,
2013-05-17 07:26:00,50.5,30.0,29.68,West,280,0.0,4.0,45,0.00,,,0.00,meteohub,2013-05-17 13:26:00,
2013-05-17 07:32:00,51.3,28.9,29.68,West,280,1.0,4.0,42,0.00,,,0.00,meteohub,2013-05-17 13:32:00,
2013-05-17 07:38:00,52.0,29.7,29.68,West,280,2.0,4.0,42,0.00,,,0.00,meteohub,2013-05-17 13:38:00,
2013-05-17 07:44:00,52.5,28.9,29.68,West,278,3.0,4.0,40,0.00,,,0.00,meteohub,2013-05-17 13:44:00,
2013-05-17 07:50:00,52.9,32.2,29.68,West,278,2.0,7.0,45,0.00,,,0.00,meteohub,2013-05-17 13:50:00,
2013-05-17 07:56:00,53.1,32.4,29.68,West,278,3.0,7.0,45,0.00,,,0.00,meteohub,2013-05-17 13:56:00,
2013-05-17 08:02:00,53.1,32.4,29.68,West,277,3.0,6.0,45,0.00,,,0.00,meteohub,2013-05-17 14:02:00,
2013-05-17 08:08:00,53.8,31.8,29.68,West,276,2.0,6.0,43,0.00,,,0.00,meteohub,2013-05-17 14:08:00,
2013-05-17 08:14:00,54.3,31.1,29.67,West,276,4.0,6.0,41,0.00,,,0.00,meteohub,2013-05-17 14:14:00,
2013-05-17 08:20:00,55.0,31.8,29.67,West,259,5.0,7.0,41,0.00,,,0.00,meteohub,2013-05-17 14:20:00,
2013-05-17 08:26:00,55.8,32.4,29.67,WSW,257,5.0,7.0,41,0.00,,,0.00,meteohub,2013-05-17 14:26:00,
2013-05-17 08:32:00,55.9,32.5,29.67,SSW,201,5.0,8.0,41,0.00,,,0.00,meteohub,2013-05-17 14:32:00,
2013-05-17 08:38:00,56.1,30.2,29.67,SSW,201,2.0,10.0,37,0.00,,,0.00,meteohub,2013-05-17 14:38:00,
2013-05-17 08:44:00,56.7,32.0,29.67,SSW,201,5.0,10.0,39,0.00,,,0.00,meteohub,2013-05-17 14:44:00,
2013-05-17 08:50:00,57.2,31.1,29.67,SSW,198,6.0,7.0,37,0.00,,,0.00,meteohub,2013-05-17 14:50:00,
2013-05-17 08:56:00,57.7,29.5,29.66,South,183,4.0,9.0,34,0.00,,,0.00,meteohub,2013-05-17 14:56:00,
2013-05-17 09:02:00,58.3,31.5,29.66,South,183,3.0,9.0,36,0.00,,,0.00,meteohub,2013-05-17 15:02:00,
2013-05-17 09:08:00,58.6,30.4,29.66,South,180,4.0,9.0,34,0.00,,,0.00,meteohub,2013-05-17 15:08:00,
2013-05-17 09:14:00,59.4,31.6,29.66,SSE,168,6.0,8.0,35,0.00,,,0.00,meteohub,2013-05-17 15:14:00,
2013-05-17 09:20:00,60.3,29.5,29.66,SSE,158,7.0,10.0,31,0.00,,,0.00,meteohub,2013-05-17 15:20:00,
2013-05-17 09:26:00,61.3,25.2,29.65,South,176,8.0,10.0,25,0.00,,,0.00,meteohub,2013-05-17 15:26:00,
2013-05-17 09:32:00,61.3,25.2,29.65,South,185,8.0,16.0,25,0.00,,,0.00,meteohub,2013-05-17 15:32:00,
2013-05-17 09:39:00,61.7,26.4,29.65,SSW,196,12.0,18.0,26,0.00,,,0.00,meteohub,2013-05-17 15:39:00,
2013-05-17 09:45:00,61.7,24.6,29.65,SSE,162,10.0,18.0,24,0.00,,,0.00,meteohub,2013-05-17 15:45:00,
2013-05-17 09:51:00,61.9,25.7,29.65,South,185,12.0,17.0,25,0.00,,,0.00,meteohub,2013-05-17 15:51:00,
2013-05-17 09:57:00,62.1,26.8,29.65,South,179,7.0,17.0,26,0.00,,,0.00,meteohub,2013-05-17 15:57:00,
2013-05-17 10:03:00,62.4,26.1,29.65,SE,133,5.0,16.0,25,0.00,,,0.00,meteohub,2013-05-17 16:03:00,
2013-05-17 10:09:00,63.0,26.6,29.65,South,182,7.0,16.0,25,0.00,,,0.00,meteohub,2013-05-17 16:09:00,
2013-05-17 10:15:00,63.5,26.1,29.65,SSE,161,6.0,16.0,24,0.00,,,0.00,meteohub,2013-05-17 16:15:00,
2013-05-17 10:21:00,63.9,25.3,29.65,South,183,4.0,12.0,23,0.00,,,0.00,meteohub,2013-05-17 16:21:00,
2013-05-17 10:27:00,64.0,25.5,29.65,South,183,9.0,12.0,23,0.00,,,0.00,meteohub,2013-05-17 16:27:00,
2013-05-17 10:33:00,64.0,25.5,29.65,South,183,6.0,13.0,23,0.00,,,0.00,meteohub,2013-05-17 16:33:00,
2013-05-17 10:39:00,64.2,27.7,29.65,South,189,10.0,13.0,25,0.00,,,0.00,meteohub,2013-05-17 16:39:00,
2013-05-17 10:45:00,64.8,26.1,29.64,SSW,193,6.0,13.0,23,0.00,,,0.00,meteohub,2013-05-17 16:45:00,
2013-05-17 10:51:00,64.9,25.2,29.64,SSE,168,7.0,13.0,22,0.00,,,0.00,meteohub,2013-05-17 16:51:00,
2013-05-17 10:57:00,65.1,24.3,29.64,South,174,8.0,12.0,21,0.00,,,0.00,meteohub,2013-05-17 16:57:00,
2013-05-17 11:03:00,65.5,25.7,29.64,SSW,210,6.0,12.0,22,0.00,,,0.00,meteohub,2013-05-17 17:03:00,
2013-05-17 11:09:00,65.1,21.7,29.64,SW,223,5.0,12.0,19,0.00,,,0.00,meteohub,2013-05-17 17:09:00,
2013-05-17 11:15:00,65.5,24.4,29.63,South,186,7.0,10.0,21,0.00,,,0.00,meteohub,2013-05-17 17:15:00,
2013-05-17 11:21:00,66.2,25.2,29.62,South,172,7.0,11.0,21,0.00,,,0.00,meteohub,2013-05-17 17:21:00,
2013-05-17 11:27:00,66.7,23.2,29.63,SSE,147,8.0,13.0,19,0.00,,,0.00,meteohub,2013-05-17 17:27:00,
2013-05-17 11:33:00,66.6,24.3,29.63,South,170,1.0,13.0,20,0.00,,,0.00,meteohub,2013-05-17 17:33:00,
2013-05-17 11:39:00,66.7,23.2,29.63,ESE,114,9.0,13.0,19,0.00,,,0.00,meteohub,2013-05-17 17:39:00,
2013-05-17 11:45:00,67.3,23.5,29.62,ESE,112,7.0,13.0,19,0.00,,,0.00,meteohub,2013-05-17 17:45:00,
2013-05-17 11:51:00,67.5,22.5,29.62,SSE,158,6.0,14.0,18,0.00,,,0.00,meteohub,2013-05-17 17:51:00,
2013-05-17 11:57:00,66.9,22.1,29.61,East,94,7.0,15.0,18,0.00,,,0.00,meteohub,2013-05-17 17:57:00,
2013-05-17 12:03:00,68.2,24.3,29.61,SSW,205,7.0,18.0,19,0.00,,,0.00,meteohub,2013-05-17 18:03:00,
2013-05-17 12:09:00,68.5,24.6,29.61,SSE,157,9.0,18.0,19,0.00,,,0.00,meteohub,2013-05-17 18:09:00,
2013-05-17 12:15:00,68.2,21.7,29.60,South,180,8.0,17.0,17,0.00,,,0.00,meteohub,2013-05-17 18:15:00,
2013-05-17 12:21:00,67.8,22.8,29.61,SSE,164,3.0,17.0,18,0.00,,,0.00,meteohub,2013-05-17 18:21:00,
2013-05-17 12:27:00,68.5,21.9,29.60,SE,127,7.0,20.0,17,0.00,,,0.00,meteohub,2013-05-17 18:27:00,
2013-05-17 12:33:00,68.5,21.9,29.60,ESE,110,5.0,20.0,17,0.00,,,0.00,meteohub,2013-05-17 18:33:00,
2013-05-17 12:39:00,70.0,24.4,29.60,South,176,7.0,20.0,18,0.00,,,0.00,meteohub,2013-05-17 18:39:00,
2013-05-17 12:45:00,70.3,23.5,29.60,SSE,153,14.0,16.0,17,0.00,,,0.00,meteohub,2013-05-17 18:45:00,
2013-05-17 12:51:00,70.0,20.1,29.60,SSW,193,9.0,21.0,15,0.00,,,0.00,meteohub,2013-05-17 18:51:00,
2013-05-17 12:57:00,69.4,18.1,29.60,North,355,5.0,21.0,14,0.00,,,0.00,meteohub,2013-05-17 18:57:00,
2013-05-17 13:03:00,69.3,22.6,29.59,NNE,31,1.0,21.0,17,0.00,,,0.00,meteohub,2013-05-17 19:03:00,
2013-05-17 13:09:00,69.6,21.4,29.58,SE,129,8.0,15.0,16,0.00,,,0.00,meteohub,2013-05-17 19:09:00,
2013-05-17 13:15:00,70.2,21.9,29.58,SW,218,4.0,18.0,16,0.00,,,0.00,meteohub,2013-05-17 19:15:00,
2013-05-17 13:21:00,70.3,22.1,29.58,SSW,201,14.0,18.0,16,0.00,,,0.00,meteohub,2013-05-17 19:21:00,
2013-05-17 13:28:00,70.5,15.4,29.58,SSE,164,8.0,18.0,12,0.00,,,0.00,meteohub,2013-05-17 19:28:00,
2013-05-17 13:34:00,71.1,15.8,29.57,SSE,157,13.0,18.0,12,0.00,,,0.00,meteohub,2013-05-17 19:34:00,
2013-05-17 13:40:00,71.1,17.8,29.57,SW,218,12.0,19.0,13,0.00,,,0.00,meteohub,2013-05-17 19:40:00,
2013-05-17 13:46:00,71.2,11.8,29.58,WSW,257,6.0,23.0,10,0.00,,,0.00,meteohub,2013-05-17 19:46:00,
2013-05-17 13:52:00,71.8,14.4,29.57,WSW,252,12.0,21.0,11,0.00,,,0.00,meteohub,2013-05-17 19:52:00,
2013-05-17 13:58:00,72.0,16.5,29.57,South,178,10.0,21.0,12,0.00,,,0.00,meteohub,2013-05-17 19:58:00,
2013-05-17 14:04:00,72.9,19.2,29.56,South,180,11.0,23.0,13,0.00,,,0.00,meteohub,2013-05-17 20:04:00,
2013-05-17 14:10:00,72.1,18.5,29.56,South,189,10.0,23.0,13,0.00,,,0.00,meteohub,2013-05-17 20:10:00,
2013-05-17 14:16:00,72.5,15.1,29.56,SSW,210,14.0,20.0,11,0.00,,,0.00,meteohub,2013-05-17 20:16:00,
2013-05-17 14:22:00,72.9,10.8,29.56,WSW,249,10.0,18.0,9,0.00,,,0.00,meteohub,2013-05-17 20:22:00,
2013-05-17 14:28:00,72.3,14.9,29.55,SSW,203,10.0,18.0,11,0.00,,,0.00,meteohub,2013-05-17 20:28:00,
2013-05-17 14:34:00,73.2,15.6,29.55,SSW,205,13.0,19.0,11,0.00,,,0.00,meteohub,2013-05-17 20:34:00,
2013-05-17 14:40:00,73.2,17.6,29.55,SSE,164,14.0,23.0,12,0.00,,,0.00,meteohub,2013-05-17 20:40:00,
2013-05-17 14:46:00,72.5,17.1,29.55,SSW,207,8.0,23.0,12,0.00,,,0.00,meteohub,2013-05-17 20:46:00,
2013-05-17 14:52:00,71.6,16.3,29.55,SSE,149,9.0,26.0,12,0.00,,,0.00,meteohub,2013-05-17 20:52:00,
2013-05-17 14:58:00,71.6,14.4,29.55,SSE,160,12.0,26.0,11,0.00,,,0.00,meteohub,2013-05-17 20:58:00,
2013-05-17 15:04:00,71.8,16.5,29.54,South,187,13.0,26.0,12,0.00,,,0.00,meteohub,2013-05-17 21:04:00,
2013-05-17 15:10:00,70.9,13.8,29.54,SSE,168,16.0,25.0,11,0.00,,,0.00,meteohub,2013-05-17 21:10:00,
2013-05-17 15:16:00,70.2,13.1,29.54,SE,146,8.0,22.0,11,0.00,,,0.00,meteohub,2013-05-17 21:16:00,
2013-05-17 15:22:00,70.2,13.1,29.54,South,174,14.0,20.0,11,0.00,,,0.00,meteohub,2013-05-17 21:22:00,
2013-05-17 15:28:00,70.0,13.1,29.53,South,174,15.0,20.0,11,0.00,,,0.00,meteohub,2013-05-17 21:28:00,
2013-05-17 15:34:00,69.8,12.9,29.53,South,183,17.0,24.0,11,0.00,,,0.00,meteohub,2013-05-17 21:34:00,
2013-05-17 15:40:00,70.0,5.9,29.53,South,171,13.0,23.0,8,0.00,,,0.00,meteohub,2013-05-17 21:40:00,
2013-05-17 15:46:00,70.3,6.3,29.53,SSW,192,14.0,21.0,8,0.00,,,0.00,meteohub,2013-05-17 21:46:00,
2013-05-17 15:52:00,70.7,9.1,29.53,SW,216,12.0,21.0,9,0.00,,,0.00,meteohub,2013-05-17 21:52:00,
2013-05-17 15:58:00,71.2,6.8,29.53,SSW,199,10.0,21.0,8,0.00,,,0.00,meteohub,2013-05-17 21:58:00,
2013-05-17 16:04:00,70.9,9.1,29.53,SSW,201,8.0,21.0,9,0.00,,,0.00,meteohub,2013-05-17 22:04:00,
2013-05-17 16:10:00,71.2,9.5,29.52,SSW,205,14.0,22.0,9,0.00,,,0.00,meteohub,2013-05-17 22:10:00,
2013-05-17 16:16:00,70.9,9.1,29.53,SSW,193,18.0,22.0,9,0.00,,,0.00,meteohub,2013-05-17 22:16:00,
2013-05-17 16:22:00,70.9,9.1,29.53,SSW,192,13.0,22.0,9,0.00,,,0.00,meteohub,2013-05-17 22:22:00,
2013-05-17 16:28:00,71.2,11.8,29.53,South,186,13.0,26.0,10,0.00,,,0.00,meteohub,2013-05-17 22:28:00,
2013-05-17 16:34:00,70.9,6.6,29.52,South,177,16.0,26.0,8,0.00,,,0.00,meteohub,2013-05-17 22:34:00,
2013-05-17 16:40:00,70.0,5.9,29.52,South,186,10.0,25.0,8,0.00,,,0.00,meteohub,2013-05-17 22:40:00,
2013-05-17 16:46:00,69.6,8.2,29.53,SSW,196,18.0,24.0,9,0.00,,,0.00,meteohub,2013-05-17 22:46:00,
2013-05-17 16:52:00,69.8,8.4,29.53,SW,216,11.0,24.0,9,0.00,,,0.00,meteohub,2013-05-17 22:52:00,
2013-05-17 16:59:00,69.6,8.2,29.53,South,174,19.0,22.0,9,0.00,,,0.00,meteohub,2013-05-17 22:59:00,
2013-05-17 17:05:00,70.2,13.1,29.52,South,172,12.0,22.0,11,0.00,,,0.00,meteohub,2013-05-17 23:05:00,
2013-05-17 17:11:00,70.5,9.0,29.53,South,178,13.0,22.0,9,0.00,,,0.00,meteohub,2013-05-17 23:11:00,
2013-05-17 17:17:00,70.7,11.5,29.53,SSW,207,12.0,22.0,10,0.00,,,0.00,meteohub,2013-05-17 23:17:00,
2013-05-17 17:23:00,70.9,6.6,29.54,SSW,209,17.0,22.0,8,0.00,,,0.00,meteohub,2013-05-17 23:23:00,
2013-05-17 17:29:00,70.5,6.3,29.53,SSW,212,11.0,20.0,8,0.00,,,0.00,meteohub,2013-05-17 23:29:00,
2013-05-17 17:35:00,71.2,6.8,29.53,SW,222,15.0,20.0,8,0.00,,,0.00,meteohub,2013-05-17 23:35:00,
2013-05-17 17:41:00,70.5,6.3,29.53,SW,223,6.0,24.0,8,0.00,,,0.00,meteohub,2013-05-17 23:41:00,
2013-05-17 17:47:00,70.9,9.1,29.53,SW,215,12.0,24.0,9,0.00,,,0.00,meteohub,2013-05-17 23:47:00,
2013-05-17 17:53:00,70.7,6.4,29.53,South,189,6.0,20.0,8,0.00,,,0.00,meteohub,2013-05-17 23:53:00,
2013-05-17 17:59:00,70.5,9.0,29.53,SSW,203,7.0,20.0,9,0.00,,,0.00,meteohub,2013-05-17 23:59:00,
2013-05-17 18:05:00,70.3,11.1,29.52,South,177,9.0,20.0,10,0.00,,,0.00,meteohub,2013-05-18 00:05:00,
2013-05-17 18:11:00,70.3,8.8,29.52,South,184,15.0,21.0,9,0.00,,,0.00,meteohub,2013-05-18 00:11:00,
2013-05-17 18:17:00,70.0,8.6,29.52,SSW,199,15.0,22.0,9,0.00,,,0.00,meteohub,2013-05-18 00:17:00,
2013-05-17 18:23:00,70.0,8.6,29.52,SSW,204,8.0,22.0,9,0.00,,,0.00,meteohub,2013-05-18 00:23:00,
2013-05-17 18:29:00,69.6,8.2,29.52,SW,226,19.0,19.0,9,0.00,,,0.00,meteohub,2013-05-18 00:29:00,
2013-05-17 18:35:00,69.3,8.1,29.52,South,187,11.0,20.0,9,0.00,,,0.00,meteohub,2013-05-18 00:35:00,
2013-05-17 18:41:00,69.3,8.1,29.52,SW,216,12.0,20.0,9,0.00,,,0.00,meteohub,2013-05-18 00:41:00,
2013-05-17 18:47:00,68.9,7.7,29.53,SSW,207,7.0,20.0,9,0.00,,,0.00,meteohub,2013-05-18 00:47:00,
2013-05-17 18:53:00,68.5,9.9,29.53,SW,216,9.0,20.0,10,0.00,,,0.00,meteohub,2013-05-18 00:53:00,
2013-05-17 18:59:00,68.4,11.8,29.53,SSW,213,9.0,18.0,11,0.00,,,0.00,meteohub,2013-05-18 00:59:00,
2013-05-17 19:05:00,68.2,11.7,29.53,SSW,199,8.0,18.0,11,0.00,,,0.00,meteohub,2013-05-18 01:05:00,
2013-05-17 19:11:00,67.6,9.1,29.53,South,179,17.0,17.0,10,0.00,,,0.00,meteohub,2013-05-18 01:11:00,
2013-05-17 19:17:00,66.9,10.8,29.53,SSW,195,7.0,19.0,11,0.00,,,0.00,meteohub,2013-05-18 01:17:00,
2013-05-17 19:23:00,66.4,8.1,29.54,SW,218,13.0,19.0,10,0.00,,,0.00,meteohub,2013-05-18 01:23:00,
2013-05-17 19:29:00,66.0,7.9,29.54,SSW,212,10.0,17.0,10,0.00,,,0.00,meteohub,2013-05-18 01:29:00,
2013-05-17 19:35:00,65.5,9.5,29.54,SSW,206,6.0,19.0,11,0.00,,,0.00,meteohub,2013-05-18 01:35:00,
2013-05-17 19:41:00,64.6,8.8,29.54,SSW,209,7.0,19.0,11,0.00,,,0.00,meteohub,2013-05-18 01:41:00,
2013-05-17 19:47:00,64.0,8.4,29.54,SW,218,11.0,16.0,11,0.00,,,0.00,meteohub,2013-05-18 01:47:00,
2013-05-17 19:53:00,63.7,8.2,29.55,SW,214,6.0,14.0,11,0.00,,,0.00,meteohub,2013-05-18 01:53:00,
2013-05-17 19:59:00,63.5,8.1,29.55,SW,215,7.0,15.0,11,0.00,,,0.00,meteohub,2013-05-18 01:59:00,
2013-05-17 20:05:00,63.1,5.7,29.55,WSW,239,8.0,15.0,10,0.00,,,0.00,meteohub,2013-05-18 02:05:00,
2013-05-17 20:11:00,63.0,5.5,29.55,SW,229,5.0,13.0,10,0.00,,,0.00,meteohub,2013-05-18 02:11:00,
2013-05-17 20:17:00,62.8,7.5,29.56,WSW,247,9.0,13.0,11,0.00,,,0.00,meteohub,2013-05-18 02:17:00,
2013-05-17 20:23:00,62.1,7.0,29.56,SW,234,7.0,14.0,11,0.00,,,0.00,meteohub,2013-05-18 02:23:00,
2013-05-17 20:29:00,61.9,6.8,29.57,WSW,237,7.0,14.0,11,0.00,,,0.00,meteohub,2013-05-18 02:29:00,
2013-05-17 20:35:00,61.5,6.4,29.57,WSW,239,9.0,12.0,11,0.00,,,0.00,meteohub,2013-05-18 02:35:00,
2013-05-17 20:42:00,61.3,6.3,29.57,SW,235,8.0,12.0,11,0.00,,,0.00,meteohub,2013-05-18 02:42:00,
2013-05-17 20:48:00,60.8,7.9,29.58,WSW,246,6.0,12.0,12,0.00,,,0.00,meteohub,2013-05-18 02:48:00,
2013-05-17 20:54:00,59.5,10.2,29.58,West,276,4.0,12.0,14,0.00,,,0.00,meteohub,2013-05-18 02:54:00,
2013-05-17 21:00:00,58.5,10.9,29.59,West,274,8.0,10.0,15,0.00,,,0.00,meteohub,2013-05-18 03:00:00,
2013-05-17 21:06:00,58.3,10.8,29.59,West,276,9.0,12.0,15,0.00,,,0.00,meteohub,2013-05-18 03:06:00,
2013-05-17 21:12:00,57.9,10.6,29.60,West,274,7.0,12.0,15,0.00,,,0.00,meteohub,2013-05-18 03:12:00,
2013-05-17 21:18:00,57.7,10.4,29.60,West,274,6.0,12.0,15,0.00,,,0.00,meteohub,2013-05-18 03:18:00,
2013-05-17 21:24:00,57.4,10.0,29.60,West,272,7.0,11.0,15,0.00,,,0.00,meteohub,2013-05-18 03:24:00,
2013-05-17 21:30:00,57.2,11.5,29.60,West,272,6.0,10.0,16,0.00,,,0.00,meteohub,2013-05-18 03:30:00,
2013-05-17 21:36:00,56.8,12.4,29.61,West,272,2.0,9.0,17,0.00,,,0.00,meteohub,2013-05-18 03:36:00,
2013-05-17 21:42:00,56.5,12.2,29.61,West,272,4.0,9.0,17,0.00,,,0.00,meteohub,2013-05-18 03:42:00,
2013-05-17 21:48:00,56.5,13.5,29.61,West,276,8.0,8.0,18,0.00,,,0.00,meteohub,2013-05-18 03:48:00,
2013-05-17 21:54:00,56.1,14.4,29.62,West,276,5.0,10.0,19,0.00,,,0.00,meteohub,2013-05-18 03:54:00,
2013-05-17 22:00:00,55.8,15.3,29.62,West,276,5.0,10.0,20,0.00,,,0.00,meteohub,2013-05-18 04:00:00,
2013-05-17 22:02:00,55.6,15.1,29.62,West,276,4.0,8.0,20,0.00,,,0.00,meteohub,2013-05-18 04:02:00,
2013-05-17 22:03:00,55.2,14.9,29.62,West,276,4.0,8.0,20,0.00,,,0.00,meteohub,2013-05-18 04:03:00,
2013-05-17 22:09:00,54.3,16.3,29.62,West,278,4.0,8.0,22,0.00,,,0.00,meteohub,2013-05-18 04:09:00,
2013-05-17 22:12:00,54.0,16.0,29.62,West,281,7.0,8.0,22,0.00,,,0.00,meteohub,2013-05-18 04:12:00,
2013-05-17 22:18:00,53.2,16.3,29.62,West,281,6.0,8.0,23,0.00,,,0.00,meteohub,2013-05-18 04:18:00,
2013-05-17 22:24:00,53.1,17.2,29.62,West,280,5.0,8.0,24,0.00,,,0.00,meteohub,2013-05-18 04:24:00,
2013-05-17 22:30:00,52.9,17.1,29.62,West,280,6.0,8.0,24,0.00,,,0.00,meteohub,2013-05-18 04:30:00,
2013-05-17 22:36:00,52.9,18.0,29.61,West,280,5.0,8.0,25,0.00,,,0.00,meteohub,2013-05-18 04:36:00,
2013-05-17 22:42:00,52.5,17.8,29.61,West,281,4.0,8.0,25,0.00,,,0.00,meteohub,2013-05-18 04:42:00,
2013-05-17 22:48:00,52.3,16.5,29.61,West,280,4.0,8.0,24,0.00,,,0.00,meteohub,2013-05-18 04:48:00,
2013-05-17 22:54:00,52.3,17.6,29.61,West,280,6.0,9.0,25,0.00,,,0.00,meteohub,2013-05-18 04:54:00,
2013-05-17 23:00:00,52.2,17.4,29.60,WNW,282,2.0,9.0,25,0.00,,,0.00,meteohub,2013-05-18 05:00:00,
2013-05-17 23:06:00,51.8,17.1,29.60,WNW,282,3.0,9.0,25,0.00,,,0.00,meteohub,2013-05-18 05:06:00,
2013-05-17 23:12:00,51.6,16.9,29.60,WNW,285,5.0,10.0,25,0.00,,,0.00,meteohub,2013-05-18 05:12:00,
2013-05-17 23:18:00,51.4,16.7,29.60,WNW,289,7.0,10.0,25,0.00,,,0.00,meteohub,2013-05-18 05:18:00,
2013-05-17 23:24:00,51.3,16.7,29.60,WNW,287,6.0,10.0,25,0.00,,,0.00,meteohub,2013-05-18 05:24:00,
2013-05-17 23:30:00,51.3,16.7,29.59,WNW,284,7.0,10.0,25,0.00,,,0.00,meteohub,2013-05-18 05:30:00,
2013-05-17 23:36:00,51.3,16.7,29.59,WNW,286,2.0,10.0,25,0.00,,,0.00,meteohub,2013-05-18 05:36:00,
2013-05-17 23:42:00,51.1,16.5,29.59,WNW,289,6.0,10.0,25,0.00,,,0.00,meteohub,2013-05-18 05:42:00,
2013-05-17 23:48:00,50.7,16.2,29.59,WNW,289,5.0,9.0,25,0.00,,,0.00,meteohub,2013-05-18 05:48:00,
2013-05-17 23:54:00,50.7,16.2,29.59,WNW,289,6.0,9.0,25,0.00,,,0.00,meteohub,2013-05-18 05:54:00,